Time;durP1;ratioP1;P1;durP2;ratioP2;P2;SDS_P1;SDS_P2;PMS_P1;PMS_P2;Temp;Humidity;BMP_temperature;BMP_pressure;BME280_temperature;BME280_humidity;BME280_pressure;Samples;Min_cycle;Max_cycle;Signal;HPM_P1;HPM_P2
2023/10/30 00:01:32;;;;;;;2.33;1.70;;;19.80;80.60;;;;;;5114158;28;20192;-74
2023/10/30 00:03:58;;;;;;;1.33;1.23;;;19.80;80.60;;;;;;5105614;28;20218;-74
2023/10/30 00:06:24;;;;;;;1.50;1.40;;;19.80;80.60;;;;;;5087748;28;20266;-74
2023/10/30 00:08:50;;;;;;;1.65;1.40;;;19.80;80.70;;;;;;5096096;28;20184;-74
2023/10/30 00:11:16;;;;;;;1.48;1.38;;;19.80;80.70;;;;;;5086874;28;20215;-74
2023/10/30 00:13:42;;;;;;;1.58;1.48;;;19.80;80.70;;;;;;5078855;28;20184;-75
2023/10/30 00:16:12;;;;;;;1.42;1.33;;;19.80;80.70;;;;;;5079364;28;20199;-74
2023/10/30 00:18:41;;;;;;;1.58;1.48;;;19.80;80.80;;;;;;5096349;28;20194;-74
2023/10/30 00:21:10;;;;;;;1.85;1.50;;;19.80;81.50;;;;;;5096083;28;20188;-74
2023/10/30 00:23:36;;;;;;;1.77;1.60;;;19.80;80.70;;;;;;5062426;28;20204;-74
2023/10/30 00:26:06;;;;;;;2.10;1.83;;;19.80;80.80;;;;;;5081739;28;20204;-74
2023/10/30 00:28:34;;;;;;;1.92;1.40;;;19.80;80.80;;;;;;5094056;28;20201;-74
2023/10/30 00:31:03;;;;;;;2.05;1.85;;;19.80;80.80;;;;;;5087424;28;20273;-74
2023/10/30 00:33:30;;;;;;;2.50;1.80;;;19.80;80.70;;;;;;5078695;28;20582;-74
2023/10/30 00:35:56;;;;;;;2.03;1.80;;;19.80;81.50;;;;;;5087055;28;20204;-74
2023/10/30 00:38:23;;;;;;;2.10;1.90;;;19.80;80.80;;;;;;5105799;28;20184;-74
2023/10/30 00:40:48;;;;;;;2.30;1.88;;;19.80;80.80;;;;;;5101274;28;20181;-74
2023/10/30 00:43:14;;;;;;;1.85;1.75;;;19.80;80.90;;;;;;5074136;28;20188;-74
2023/10/30 00:45:40;;;;;;;2.25;1.88;;;19.80;80.90;;;;;;5076394;28;20204;-74
2023/10/30 00:48:06;;;;;;;2.00;1.83;;;19.80;80.90;;;;;;5065476;28;20187;-74
2023/10/30 00:50:32;;;;;;;1.88;1.77;;;19.80;80.90;;;;;;5104424;28;20187;-74
2023/10/30 00:52:58;;;;;;;1.80;1.67;;;19.80;80.90;;;;;;5088197;28;20207;-74
2023/10/30 00:55:24;;;;;;;2.03;1.90;;;19.80;80.80;;;;;;5092358;28;20227;-74
2023/10/30 00:57:50;;;;;;;1.70;1.60;;;19.80;80.80;;;;;;5112634;28;20176;-74
2023/10/30 01:00:16;;;;;;;2.42;1.60;;;19.80;80.90;;;;;;5087512;28;20184;-74
2023/10/30 01:02:43;;;;;;;2.60;2.00;;;19.80;80.90;;;;;;5078373;28;20188;-75
2023/10/30 01:05:09;;;;;;;2.17;1.98;;;19.80;81.00;;;;;;5087503;28;20218;-74
2023/10/30 01:07:35;;;;;;;2.17;1.98;;;19.80;81.00;;;;;;5075736;28;20181;-74
2023/10/30 01:10:00;;;;;;;2.50;1.98;;;19.80;80.90;;;;;;5095400;28;20570;-74
2023/10/30 01:12:26;;;;;;;1.80;1.70;;;19.80;81.10;;;;;;5094847;28;20219;-74
2023/10/30 01:14:52;;;;;;;2.03;1.83;;;19.80;81.00;;;;;;5102581;28;20203;-74
2023/10/30 01:17:18;;;;;;;2.38;1.67;;;19.80;81.00;;;;;;5094834;28;20227;-74
2023/10/30 01:19:44;;;;;;;1.83;1.73;;;19.80;81.00;;;;;;5112180;28;20216;-74
2023/10/30 01:22:10;;;;;;;2.33;2.10;;;19.80;81.00;;;;;;5088643;28;20686;-75
2023/10/30 01:24:36;;;;;;;1.75;1.63;;;19.80;81.10;;;;;;5078396;28;20188;-74
2023/10/30 01:27:02;;;;;;;1.98;1.73;;;19.80;81.00;;;;;;5086484;28;20666;-74
2023/10/30 01:29:28;;;;;;;2.00;1.75;;;19.80;81.00;;;;;;5087256;28;20187;-75
2023/10/30 01:31:54;;;;;;;2.20;2.00;;;19.80;81.00;;;;;;5075367;28;20767;-74
2023/10/30 01:34:20;;;;;;;1.90;1.80;;;19.80;81.00;;;;;;5101877;28;20188;-74
2023/10/30 01:36:45;;;;;;;2.13;1.92;;;19.80;81.00;;;;;;5087164;28;20706;-74
2023/10/30 01:39:11;;;;;;;1.77;1.67;;;19.80;81.00;;;;;;5067220;28;20558;-74
2023/10/30 01:41:39;;;;;;;1.98;1.83;;;19.80;81.00;;;;;;5093510;28;20192;-74
2023/10/30 01:44:05;;;;;;;2.25;2.05;;;19.80;81.00;;;;;;5088591;28;20275;-74
2023/10/30 01:46:31;;;;;;;1.90;1.52;;;19.80;81.10;;;;;;5087060;28;20353;-74
2023/10/30 01:48:57;;;;;;;1.88;1.77;;;19.80;81.00;;;;;;5090894;28;20180;-74
2023/10/30 01:51:23;;;;;;;2.05;1.85;;;19.80;81.10;;;;;;5080190;28;20209;-74
2023/10/30 01:53:50;;;;;;;1.80;1.70;;;19.80;81.10;;;;;;5077190;28;20752;-74
2023/10/30 01:56:16;;;;;;;1.90;1.80;;;19.80;81.10;;;;;;5112610;28;20287;-74
2023/10/30 01:58:44;;;;;;;1.70;1.60;;;19.80;81.10;;;;;;5077447;28;20577;-74
2023/10/30 02:01:09;;;;;;;2.20;1.95;;;19.80;81.10;;;;;;5093120;28;20184;-74
2023/10/30 02:03:35;;;;;;;1.77;1.67;;;19.80;81.10;;;;;;5074191;28;20192;-74
2023/10/30 02:06:01;;;;;;;1.60;1.50;;;19.80;81.10;;;;;;5074627;28;20691;-74
2023/10/30 02:08:28;;;;;;;1.85;1.75;;;19.80;81.20;;;;;;5089210;28;20196;-74
2023/10/30 02:10:54;;;;;;;1.98;1.80;;;19.80;81.20;;;;;;5086946;28;20208;-74
2023/10/30 02:13:20;;;;;;;1.98;1.77;;;19.80;81.10;;;;;;5073733;28;20194;-74
2023/10/30 02:15:45;;;;;;;1.85;1.75;;;19.80;81.20;;;;;;5071807;28;20565;-74
2023/10/30 02:18:11;;;;;;;1.95;1.83;;;19.80;81.20;;;;;;5069435;28;20204;-74
2023/10/30 02:20:39;;;;;;;1.67;1.58;;;19.80;81.20;;;;;;5088512;28;20283;-74
2023/10/30 02:23:04;;;;;;;1.90;1.80;;;19.80;81.10;;;;;;5073580;28;20666;-74
2023/10/30 02:25:33;;;;;;;1.80;1.70;;;19.80;81.20;;;;;;5087275;28;20251;-74
2023/10/30 02:27:59;;;;;;;2.33;1.75;;;19.80;81.20;;;;;;5083681;28;20193;-75
2023/10/30 02:30:26;;;;;;;1.88;1.77;;;19.80;81.20;;;;;;5067620;28;20199;-74
2023/10/30 02:32:52;;;;;;;1.88;1.77;;;19.80;81.20;;;;;;5092055;28;20236;-74
2023/10/30 02:35:19;;;;;;;2.17;1.98;;;19.80;81.20;;;;;;5073510;28;20208;-74
2023/10/30 02:37:47;;;;;;;2.20;2.00;;;19.80;81.20;;;;;;5073806;28;20189;-74
2023/10/30 02:40:14;;;;;;;1.95;1.85;;;19.80;81.20;;;;;;5093958;28;20188;-74
2023/10/30 02:42:41;;;;;;;1.80;1.58;;;19.80;81.20;;;;;;5076814;28;20180;-74
2023/10/30 02:45:08;;;;;;;1.85;1.73;;;19.80;81.10;;;;;;5067383;28;20209;-74
2023/10/30 02:47:34;;;;;;;1.88;1.77;;;19.80;81.20;;;;;;5093806;28;20207;-74
2023/10/30 02:50:03;;;;;;;2.15;1.77;;;19.80;81.20;;;;;;5111945;28;20193;-74
2023/10/30 02:52:30;;;;;;;1.67;1.58;;;19.80;81.20;;;;;;5105386;28;20217;-74
2023/10/30 02:54:56;;;;;;;1.83;1.73;;;19.80;81.20;;;;;;5084526;28;20299;-75
2023/10/30 02:57:22;;;;;;;1.63;1.52;;;19.80;81.20;;;;;;5077786;28;20234;-74
2023/10/30 02:59:48;;;;;;;1.70;1.50;;;19.70;81.10;;;;;;5089809;28;20185;-74
2023/10/30 03:02:14;;;;;;;1.60;1.50;;;19.80;81.20;;;;;;5070603;28;20222;-74
2023/10/30 03:04:39;;;;;;;1.77;1.67;;;19.80;81.20;;;;;;5111418;28;20207;-74
2023/10/30 03:07:05;;;;;;;2.00;1.80;;;19.80;81.20;;;;;;5085136;28;20184;-74
2023/10/30 03:09:37;;;;;;;2.00;1.80;;;19.80;81.20;;;;;;5104216;28;20197;-74
2023/10/30 03:12:04;;;;;;;1.75;1.65;;;19.80;81.20;;;;;;5085208;28;20212;-74
2023/10/30 03:14:30;;;;;;;1.92;1.73;;;19.70;81.10;;;;;;5085378;28;20200;-73
2023/10/30 03:16:59;;;;;;;1.92;1.80;;;19.70;81.10;;;;;;5111643;28;20180;-74
2023/10/30 03:19:25;;;;;;;1.50;1.40;;;19.70;81.10;;;;;;5076391;28;20192;-74
2023/10/30 03:21:51;;;;;;;1.80;1.70;;;19.80;81.20;;;;;;5079797;28;20188;-74
2023/10/30 03:24:16;;;;;;;1.60;1.50;;;19.70;81.20;;;;;;5096843;28;20199;-74
2023/10/30 03:26:42;;;;;;;1.80;1.70;;;19.70;81.10;;;;;;5096652;28;20208;-74
2023/10/30 03:29:08;;;;;;;1.58;1.48;;;19.70;81.10;;;;;;5080149;28;20196;-74
2023/10/30 03:31:33;;;;;;;1.92;1.58;;;19.70;81.90;;;;;;5072526;28;20212;-74
2023/10/30 03:33:59;;;;;;;1.40;1.30;;;19.70;81.10;;;;;;5091630;28;20188;-74
2023/10/30 03:36:25;;;;;;;1.48;1.38;;;19.70;81.10;;;;;;5080039;28;20214;-74
2023/10/30 03:38:51;;;;;;;1.73;1.63;;;19.70;81.10;;;;;;5115129;28;20233;-74
2023/10/30 03:41:20;;;;;;;1.40;1.30;;;19.70;81.10;;;;;;5091446;28;20188;-75
2023/10/30 03:43:46;;;;;;;1.73;1.63;;;19.70;81.10;;;;;;5101355;28;20555;-74
2023/10/30 03:46:12;;;;;;;1.63;1.52;;;19.70;81.10;;;;;;5086560;28;20220;-74
2023/10/30 03:48:38;;;;;;;1.60;1.40;;;19.80;81.20;;;;;;5091418;28;20239;-74
2023/10/30 03:51:05;;;;;;;1.55;1.45;;;19.70;81.10;;;;;;5076709;28;20228;-74
2023/10/30 03:53:32;;;;;;;1.30;1.20;;;19.70;81.10;;;;;;5083493;28;20200;-74
2023/10/30 03:55:58;;;;;;;1.50;1.40;;;19.70;81.20;;;;;;5078039;28;20204;-75
2023/10/30 03:58:25;;;;;;;1.55;1.45;;;19.70;81.10;;;;;;5090405;28;20183;-74
2023/10/30 04:00:51;;;;;;;1.65;1.55;;;19.80;81.20;;;;;;5084996;28;20224;-75
2023/10/30 04:03:17;;;;;;;1.50;1.40;;;19.70;81.10;;;;;;5086710;28;20191;-74
2023/10/30 04:05:43;;;;;;;1.45;1.35;;;19.70;81.10;;;;;;5077669;28;20211;-74
2023/10/30 04:08:09;;;;;;;1.73;1.63;;;19.70;81.10;;;;;;5100668;28;20189;-74
2023/10/30 04:10:35;;;;;;;1.50;1.40;;;19.70;81.20;;;;;;5099437;28;20235;-74
2023/10/30 04:13:00;;;;;;;1.50;1.40;;;19.70;81.20;;;;;;5080358;28;20195;-75
2023/10/30 04:15:26;;;;;;;1.48;1.38;;;19.70;81.10;;;;;;5079766;28;20212;-75
2023/10/30 04:17:54;;;;;;;1.50;1.40;;;19.70;81.20;;;;;;5081293;28;20215;-74
2023/10/30 04:20:20;;;;;;;1.48;1.38;;;19.70;81.20;;;;;;5100683;28;20181;-74
2023/10/30 04:22:49;;;;;;;1.55;1.45;;;19.70;81.10;;;;;;5102122;28;20201;-74
2023/10/30 04:25:17;;;;;;;1.80;1.70;;;19.70;81.10;;;;;;5102399;28;20213;-74
2023/10/30 04:27:43;;;;;;;1.38;1.27;;;19.70;81.10;;;;;;5082155;28;20328;-74
2023/10/30 04:30:09;;;;;;;1.80;1.52;;;19.70;81.10;;;;;;5100721;28;20607;-74
2023/10/30 04:32:35;;;;;;;1.60;1.50;;;19.70;81.10;;;;;;5084311;28;20222;-74
2023/10/30 04:35:01;;;;;;;1.38;1.27;;;19.70;81.10;;;;;;5081754;28;20216;-74
2023/10/30 04:37:26;;;;;;;2.20;1.48;;;19.70;81.10;;;;;;5083371;28;20219;-74
2023/10/30 04:39:52;;;;;;;1.30;1.20;;;19.70;81.10;;;;;;5084962;28;20192;-74
2023/10/30 04:42:18;;;;;;;1.50;1.40;;;19.70;81.10;;;;;;5082616;28;20583;-74
2023/10/30 04:44:44;;;;;;;1.60;1.50;;;19.70;81.20;;;;;;5082987;28;20194;-74
2023/10/30 04:47:10;;;;;;;1.65;1.55;;;19.70;81.10;;;;;;5082712;28;20189;-74
2023/10/30 04:49:37;;;;;;;1.60;1.50;;;19.70;81.10;;;;;;5084689;28;20291;-75
2023/10/30 04:52:04;;;;;;;1.63;1.52;;;19.70;81.20;;;;;;5079932;28;20220;-75
2023/10/30 04:54:32;;;;;;;1.85;1.70;;;19.70;81.10;;;;;;5082563;28;20187;-74
2023/10/30 04:56:58;;;;;;;1.90;1.80;;;19.70;81.20;;;;;;5084259;28;20673;-74
2023/10/30 04:59:23;;;;;;;1.70;1.60;;;19.70;81.10;;;;;;5086795;28;20192;-74
2023/10/30 05:01:49;;;;;;;1.67;1.58;;;19.70;81.20;;;;;;5082071;28;20196;-74
2023/10/30 05:04:17;;;;;;;1.75;1.65;;;19.70;81.20;;;;;;5078608;28;20728;-75
2023/10/30 05:06:43;;;;;;;2.08;1.88;;;19.70;81.20;;;;;;5091286;28;20216;-74
2023/10/30 05:09:09;;;;;;;2.15;1.95;;;19.70;81.20;;;;;;5087141;28;20262;-74
2023/10/30 05:11:38;;;;;;;2.20;1.83;;;19.70;81.20;;;;;;5087427;28;20232;-74
2023/10/30 05:14:05;;;;;;;2.28;2.08;;;19.70;81.10;;;;;;5085233;28;20189;-74
2023/10/30 05:16:30;;;;;;;2.35;2.15;;;19.70;81.10;;;;;;5100205;28;20216;-74
2023/10/30 05:18:56;;;;;;;2.00;1.90;;;19.70;81.20;;;;;;5085225;28;20188;-75
2023/10/30 05:21:22;;;;;;;2.00;1.90;;;19.70;81.10;;;;;;5101199;28;20295;-74
2023/10/30 05:23:49;;;;;;;1.52;1.42;;;19.70;81.20;;;;;;5082089;28;20192;-74
2023/10/30 05:26:15;;;;;;;1.80;1.70;;;19.70;81.10;;;;;;5100843;28;20217;-74
2023/10/30 05:28:41;;;;;;;2.05;1.90;;;19.70;81.20;;;;;;5106832;28;20188;-74
2023/10/30 05:31:07;;;;;;;1.70;1.60;;;19.70;81.10;;;;;;5084254;28;20238;-74
2023/10/30 05:33:34;;;;;;;2.08;1.98;;;19.70;81.20;;;;;;5102268;28;20260;-74
2023/10/30 05:36:03;;;;;;;1.80;1.70;;;19.70;81.20;;;;;;5103334;28;20213;-74
2023/10/30 05:38:28;;;;;;;1.67;1.58;;;19.70;81.20;;;;;;5107157;28;20678;-74
2023/10/30 05:40:54;;;;;;;2.38;2.17;;;19.70;81.20;;;;;;5086061;28;20185;-74
2023/10/30 05:43:20;;;;;;;1.95;1.77;;;19.70;81.20;;;;;;5073694;28;20237;-74
2023/10/30 05:45:49;;;;;;;2.00;1.90;;;19.70;81.20;;;;;;5097696;28;20199;-74
2023/10/30 05:48:16;;;;;;;2.10;1.90;;;19.70;81.20;;;;;;5073484;28;20184;-74
2023/10/30 05:50:42;;;;;;;1.80;1.70;;;19.70;81.20;;;;;;5082081;28;20202;-74
2023/10/30 05:53:08;;;;;;;1.90;1.77;;;19.70;81.20;;;;;;5110286;28;20176;-74
2023/10/30 05:55:34;;;;;;;2.03;1.92;;;19.70;81.20;;;;;;5084951;28;20200;-74
2023/10/30 05:58:00;;;;;;;1.70;1.60;;;19.70;81.20;;;;;;5086738;28;20184;-74
2023/10/30 06:00:26;;;;;;;1.92;1.73;;;19.70;81.20;;;;;;5085704;28;20717;-74
2023/10/30 06:02:53;;;;;;;1.60;1.50;;;19.70;81.20;;;;;;5072547;28;20185;-74
2023/10/30 06:05:19;;;;;;;2.10;1.90;;;19.70;81.10;;;;;;5066382;28;20236;-74
2023/10/30 06:07:45;;;;;;;1.92;1.80;;;19.70;81.20;;;;;;5087018;28;20207;-74
2023/10/30 06:10:11;;;;;;;1.83;1.73;;;19.70;81.20;;;;;;5073932;28;20183;-74
2023/10/30 06:12:38;;;;;;;1.75;1.63;;;19.70;81.20;;;;;;5073763;28;20298;-74
2023/10/30 06:15:05;;;;;;;1.75;1.65;;;19.70;81.20;;;;;;5111911;28;20682;-74
2023/10/30 06:17:31;;;;;;;1.55;1.45;;;19.70;81.20;;;;;;5082029;28;20181;-74
2023/10/30 06:19:57;;;;;;;1.60;1.50;;;19.70;81.20;;;;;;5094023;28;20195;-73
2023/10/30 06:22:22;;;;;;;1.70;1.60;;;19.70;81.20;;;;;;5112043;28;20975;-74
2023/10/30 06:24:48;;;;;;;1.70;1.60;;;19.70;81.20;;;;;;5085342;28;20195;-74
2023/10/30 06:27:14;;;;;;;1.90;1.80;;;19.70;81.20;;;;;;5108193;28;20203;-74
2023/10/30 06:29:40;;;;;;;1.90;1.80;;;19.70;81.10;;;;;;5077836;28;20192;-74
2023/10/30 06:32:07;;;;;;;2.05;1.88;;;19.70;81.10;;;;;;5090453;28;20211;-73
2023/10/30 06:34:33;;;;;;;1.90;1.80;;;19.70;81.10;;;;;;5087246;28;20185;-74
2023/10/30 06:36:59;;;;;;;2.42;1.60;;;19.70;81.10;;;;;;5100201;28;20176;-74
2023/10/30 06:39:25;;;;;;;1.70;1.60;;;19.70;81.20;;;;;;5090759;28;20188;-74
2023/10/30 06:41:56;;;;;;;1.65;1.55;;;19.70;81.10;;;;;;5108694;28;20195;-73
2023/10/30 06:44:22;;;;;;;1.58;1.48;;;19.70;81.20;;;;;;5108061;28;20192;-73
2023/10/30 06:46:50;;;;;;;1.80;1.70;;;19.70;81.10;;;;;;5093344;28;20254;-73
2023/10/30 06:49:17;;;;;;;1.63;1.48;;;19.70;81.10;;;;;;5076318;28;20184;-73
2023/10/30 06:51:43;;;;;;;1.90;1.80;;;19.70;81.10;;;;;;5092950;28;20216;-73
2023/10/30 06:54:12;;;;;;;1.70;1.60;;;19.60;81.00;;;;;;5111428;28;20185;-73
2023/10/30 06:56:39;;;;;;;1.60;1.50;;;19.70;81.10;;;;;;5109218;28;20200;-73
2023/10/30 06:59:05;;;;;;;1.70;1.60;;;19.70;82.00;;;;;;5115602;28;20271;-73
2023/10/30 07:01:43;;;;;;;1.65;1.55;;;19.60;81.00;;;;;;5097444;28;20245;-73
2023/10/30 07:04:13;;;;;;;1.70;1.52;;;19.60;81.00;;;;;;5087470;28;20189;-73
2023/10/30 07:06:43;;;;;;;2.20;1.67;;;19.70;81.10;;;;;;5111633;28;20212;-73
2023/10/30 07:09:10;;;;;;;1.90;1.70;;;19.70;81.10;;;;;;5087659;28;20548;-74
2023/10/30 07:11:39;;;;;;;2.55;1.50;;;19.70;81.10;;;;;;5102737;28;20197;-73
2023/10/30 07:14:06;;;;;;;1.60;1.50;;;19.70;81.10;;;;;;5096506;28;20188;-73
2023/10/30 07:16:33;;;;;;;1.77;1.67;;;19.70;81.10;;;;;;5102081;28;20231;-73
2023/10/30 07:18:59;;;;;;;1.52;1.42;;;19.70;81.10;;;;;;5112822;28;20184;-73
2023/10/30 07:21:26;;;;;;;2.05;1.40;;;19.70;81.10;;;;;;5094579;28;20223;-73
2023/10/30 07:23:53;;;;;;;1.70;1.55;;;19.70;81.10;;;;;;5094187;28;20192;-73
2023/10/30 07:26:21;;;;;;;1.85;1.75;;;19.70;81.10;;;;;;5096831;28;20231;-73
2023/10/30 07:28:48;;;;;;;1.60;1.50;;;19.70;81.10;;;;;;5076583;28;20205;-74
2023/10/30 07:31:15;;;;;;;1.63;1.52;;;19.60;81.00;;;;;;5095202;28;20247;-73
2023/10/30 07:33:41;;;;;;;1.92;1.83;;;19.70;81.20;;;;;;5097426;28;20210;-73
2023/10/30 07:36:06;;;;;;;1.60;1.50;;;19.70;81.20;;;;;;5079370;28;20204;-73
2023/10/30 07:38:32;;;;;;;1.65;1.55;;;19.70;81.10;;;;;;5073343;28;20184;-73
2023/10/30 07:40:58;;;;;;;2.22;1.73;;;19.70;81.20;;;;;;5096757;28;20199;-73
2023/10/30 07:43:24;;;;;;;1.52;1.33;;;19.60;81.00;;;;;;5096828;28;20199;-73
2023/10/30 07:45:50;;;;;;;2.05;1.30;;;19.60;81.00;;;;;;5114795;28;20200;-73
2023/10/30 07:48:16;;;;;;;1.50;1.40;;;19.70;81.20;;;;;;5114842;28;20192;-71
2023/10/30 07:50:43;;;;;;;1.38;1.27;;;19.70;81.10;;;;;;5085849;28;20269;-71
2023/10/30 07:53:09;;;;;;;1.88;1.50;;;19.60;81.00;;;;;;5096473;28;20181;-73
2023/10/30 07:55:37;;;;;;;1.45;1.35;;;19.60;81.10;;;;;;5096364;28;20686;-73
2023/10/30 07:58:06;;;;;;;1.50;1.40;;;19.70;81.20;;;;;;5092994;28;20180;-73
2023/10/30 08:00:35;;;;;;;1.23;1.20;;;19.70;81.20;;;;;;5111384;27;20209;-73
2023/10/30 08:03:01;;;;;;;1.60;1.50;;;19.70;81.10;;;;;;5112214;28;20188;-73
2023/10/30 08:05:27;;;;;;;1.60;1.50;;;19.70;81.00;;;;;;5081688;28;20208;-74
2023/10/30 08:07:53;;;;;;;1.50;1.40;;;19.70;81.00;;;;;;5093890;28;20176;-73
2023/10/30 08:10:19;;;;;;;2.00;1.30;;;19.70;81.00;;;;;;5079124;28;20248;-73
2023/10/30 08:12:44;;;;;;;1.30;1.20;;;19.70;81.00;;;;;;5110113;28;20213;-74
2023/10/30 08:15:10;;;;;;;1.45;1.35;;;19.70;81.00;;;;;;5087442;28;20193;-73
2023/10/30 08:17:37;;;;;;;1.60;1.50;;;19.70;81.00;;;;;;5072614;28;20561;-74
2023/10/30 08:20:04;;;;;;;1.38;1.27;;;19.80;81.00;;;;;;5072051;28;20255;-73
2023/10/30 08:22:30;;;;;;;1.20;1.10;;;19.70;80.90;;;;;;5095826;28;20671;-74
2023/10/30 08:24:56;;;;;;;1.15;1.05;;;19.80;81.00;;;;;;5087234;28;20274;-73
2023/10/30 08:27:21;;;;;;;1.30;1.20;;;19.80;81.00;;;;;;5070729;28;20275;-74
2023/10/30 08:29:47;;;;;;;1.77;1.10;;;19.80;81.00;;;;;;5090966;28;20272;-73
2023/10/30 08:32:13;;;;;;;1.40;1.27;;;19.80;81.00;;;;;;5089738;28;20269;-73
2023/10/30 08:34:39;;;;;;;1.45;1.20;;;19.80;80.90;;;;;;5088556;28;20226;-73
2023/10/30 08:37:05;;;;;;;1.50;1.40;;;19.80;80.90;;;;;;5095899;28;20215;-73
2023/10/30 08:39:30;;;;;;;1.23;1.13;;;19.80;80.90;;;;;;5113585;28;20212;-73
2023/10/30 08:41:56;;;;;;;1.30;1.20;;;19.80;80.90;;;;;;5112042;28;20196;-73
2023/10/30 08:44:22;;;;;;;1.20;1.10;;;19.80;80.90;;;;;;5093764;28;20202;-73
2023/10/30 08:46:48;;;;;;;1.27;1.17;;;19.80;80.90;;;;;;5088321;28;20607;-73
2023/10/30 08:49:14;;;;;;;1.17;1.08;;;19.80;80.90;;;;;;5110046;28;20192;-74
2023/10/30 08:51:43;;;;;;;1.20;1.10;;;19.80;80.80;;;;;;5091424;28;20217;-74
2023/10/30 08:54:09;;;;;;;0.90;0.90;;;19.80;80.80;;;;;;5093840;28;20643;-73
2023/10/30 08:56:36;;;;;;;1.00;1.00;;;19.90;80.90;;;;;;5075582;28;20223;-72
2023/10/30 08:59:05;;;;;;;1.20;1.20;;;19.90;80.90;;;;;;5085563;28;20232;-74
2023/10/30 09:01:31;;;;;;;1.30;1.20;;;19.90;81.00;;;;;;5103505;28;20254;-73
2023/10/30 09:03:58;;;;;;;1.40;1.30;;;19.80;80.90;;;;;;5088807;28;20267;-71
2023/10/30 09:06:24;;;;;;;1.42;1.30;;;19.80;80.90;;;;;;5108603;28;20215;-74
2023/10/30 09:08:50;;;;;;;2.03;1.20;;;19.80;80.90;;;;;;5105121;28;20216;-73
2023/10/30 09:11:16;;;;;;;1.05;1.05;;;19.80;80.90;;;;;;5093945;28;20261;-73
2023/10/30 09:13:43;;;;;;;1.20;1.10;;;19.80;80.90;;;;;;5085148;28;20287;-73
2023/10/30 09:16:08;;;;;;;0.85;0.85;;;19.90;81.00;;;;;;5078833;28;20288;-73
2023/10/30 09:18:35;;;;;;;1.42;1.33;;;19.90;81.00;;;;;;5111410;28;20205;-73
2023/10/30 09:21:01;;;;;;;1.40;1.30;;;19.90;81.00;;;;;;5095194;28;20219;-73
2023/10/30 09:23:27;;;;;;;2.05;1.20;;;19.90;81.00;;;;;;5087156;28;20196;-73
2023/10/30 09:25:52;;;;;;;1.10;1.00;;;19.90;81.00;;;;;;5093632;28;20271;-73
2023/10/30 09:28:18;;;;;;;1.08;1.00;;;19.90;81.00;;;;;;5077007;28;20195;-73
2023/10/30 09:30:44;;;;;;;1.10;1.10;;;19.90;81.00;;;;;;5094519;28;20736;-73
2023/10/30 09:33:10;;;;;;;1.00;1.00;;;19.90;81.00;;;;;;5112386;28;20184;-73
2023/10/30 09:35:37;;;;;;;1.13;1.08;;;19.90;81.00;;;;;;5111605;28;20239;-73
2023/10/30 09:38:04;;;;;;;1.02;0.95;;;19.90;81.00;;;;;;5093747;28;20184;-73
2023/10/30 09:40:30;;;;;;;1.10;1.00;;;19.90;81.00;;;;;;5086772;28;20217;-73
2023/10/30 09:42:56;;;;;;;1.35;0.90;;;19.90;81.00;;;;;;5075813;28;20192;-72
2023/10/30 09:45:26;;;;;;;0.98;0.98;;;19.90;81.00;;;;;;5085401;28;20204;-72
2023/10/30 09:47:57;;;;;;;0.90;0.90;;;19.90;81.00;;;;;;5094117;28;20192;-73
2023/10/30 09:50:26;;;;;;;2.30;1.13;;;19.90;81.00;;;;;;5082614;28;20189;-72
2023/10/30 09:52:53;;;;;;;1.25;1.05;;;19.90;80.90;;;;;;5089236;28;20299;-73
2023/10/30 09:55:22;;;;;;;1.88;1.05;;;19.90;80.90;;;;;;5090460;28;20200;-73
2023/10/30 09:57:51;;;;;;;1.50;1.00;;;19.90;81.00;;;;;;5106636;28;20185;-73
2023/10/30 10:00:18;;;;;;;1.20;1.20;;;19.90;81.00;;;;;;5108851;28;20263;-73
2023/10/30 10:02:46;;;;;;;1.40;1.30;;;19.90;81.00;;;;;;5109243;28;20236;-73
2023/10/30 10:05:13;;;;;;;1.08;0.98;;;19.90;81.00;;;;;;5076417;28;20207;-72
2023/10/30 10:07:40;;;;;;;1.05;1.05;;;19.90;81.00;;;;;;5085098;28;20219;-74
2023/10/30 10:10:08;;;;;;;3.30;1.02;;;19.90;80.90;;;;;;5092029;28;20305;-73
2023/10/30 10:12:36;;;;;;;1.55;1.23;;;19.90;81.00;;;;;;5091668;28;20213;-72
2023/10/30 10:15:07;;;;;;;1.13;1.02;;;19.90;81.00;;;;;;5093761;28;20288;-73
2023/10/30 10:17:53;;;;;;;1.38;1.15;;;19.90;81.00;;;;;;5093362;28;20187;-73
2023/10/30 10:20:21;;;;;;;1.70;1.10;;;19.90;81.00;;;;;;5077010;28;20567;-73
2023/10/30 10:22:47;;;;;;;1.10;1.00;;;19.90;81.00;;;;;;5085497;28;20658;-73
2023/10/30 10:25:18;;;;;;;1.25;1.15;;;19.90;81.00;;;;;;5093291;28;20215;-74
2023/10/30 10:27:44;;;;;;;0.90;0.90;;;19.90;81.00;;;;;;5111722;28;20237;-73
2023/10/30 10:30:10;;;;;;;1.17;1.00;;;19.90;81.00;;;;;;5085561;28;20215;-73
2023/10/30 10:32:37;;;;;;;1.92;1.20;;;19.90;81.00;;;;;;5085746;28;20258;-73
2023/10/30 10:35:06;;;;;;;1.25;0.98;;;19.90;81.10;;;;;;5097741;28;20238;-73
2023/10/30 10:37:32;;;;;;;1.67;1.10;;;19.90;81.10;;;;;;5097655;28;20211;-71
2023/10/30 10:39:59;;;;;;;0.88;0.88;;;19.90;81.90;;;;;;5116092;28;20639;-73
2023/10/30 10:42:27;;;;;;;1.20;1.10;;;19.90;81.10;;;;;;5097754;28;20214;-73
2023/10/30 10:44:56;;;;;;;1.27;1.10;;;19.90;81.10;;;;;;5097681;28;20212;-73
2023/10/30 10:47:22;;;;;;;1.52;1.05;;;19.90;81.10;;;;;;5098058;28;20188;-75
2023/10/30 10:49:50;;;;;;;1.30;1.20;;;19.90;81.20;;;;;;5080883;28;20206;-73
2023/10/30 10:52:19;;;;;;;1.15;1.05;;;19.90;81.10;;;;;;5116085;28;20298;-73
2023/10/30 10:55:01;;;;;;;1.42;0.88;;;19.90;81.20;;;;;;5089010;28;20175;-74
2023/10/30 10:57:34;;;;;;;1.00;0.98;;;19.90;81.20;;;;;;5089271;28;20184;-71
2023/10/30 11:00:07;;;;;;;1.60;1.25;;;19.90;81.10;;;;;;5080948;28;20294;-74
2023/10/30 11:02:38;;;;;;;0.98;0.95;;;19.90;81.20;;;;;;5078752;28;20181;-74
2023/10/30 11:05:08;;;;;;;0.80;0.80;;;19.90;81.10;;;;;;5077020;28;20656;-73
2023/10/30 11:07:57;;;;;;;1.42;1.20;;;19.90;81.20;;;;;;5087386;28;20283;-70
2023/10/30 11:10:33;;;;;;;1.92;1.20;;;19.90;81.20;;;;;;5094260;28;20217;-72
2023/10/30 11:13:30;;;;;;;1.17;1.08;;;19.90;82.00;;;;;;5108738;28;20218;-74
2023/10/30 11:16:22;;;;;;;1.25;1.15;;;19.90;81.30;;;;;;5080163;28;20218;-74
2023/10/30 11:18:55;;;;;;;1.13;1.02;;;19.90;81.20;;;;;;5093689;28;20204;-74
2023/10/30 11:21:26;;;;;;;1.30;1.20;;;19.90;81.20;;;;;;5079729;28;20214;-73
2023/10/30 11:23:57;;;;;;;1.20;1.10;;;19.90;81.30;;;;;;5085803;28;20181;-73
2023/10/30 11:26:44;;;;;;;1.67;1.23;;;19.90;81.30;;;;;;5104024;28;20774;-73
2023/10/30 11:29:22;;;;;;;1.60;1.20;;;19.90;81.30;;;;;;5090477;28;20272;-74
2023/10/30 11:31:51;;;;;;;1.13;1.00;;;19.90;81.30;;;;;;5093398;28;20212;-73
2023/10/30 11:34:16;;;;;;;1.08;1.02;;;19.90;81.30;;;;;;5095633;28;20197;-73
2023/10/30 11:36:47;;;;;;;1.23;1.13;;;19.90;81.30;;;;;;5106435;28;20196;-74
2023/10/30 11:39:20;;;;;;;1.27;1.17;;;19.90;81.30;;;;;;5082665;28;20185;-73
2023/10/30 11:41:53;;;;;;;1.33;1.17;;;19.90;81.30;;;;;;5078797;28;20293;-74
2023/10/30 11:44:20;;;;;;;1.58;1.08;;;19.90;81.30;;;;;;5100091;28;20184;-73
2023/10/30 11:46:52;;;;;;;1.63;1.40;;;19.90;81.30;;;;;;5068067;28;20219;-73
2023/10/30 11:49:21;;;;;;;1.60;1.50;;;19.90;81.30;;;;;;5110833;28;20318;-73
2023/10/30 11:51:51;;;;;;;1.73;1.15;;;19.90;81.30;;;;;;5110537;28;20219;-74
2023/10/30 11:54:45;;;;;;;1.42;1.30;;;19.90;81.40;;;;;;5096533;28;20187;-74
2023/10/30 11:57:11;;;;;;;1.52;1.27;;;19.90;81.40;;;;;;5070200;28;20200;-74
2023/10/30 11:59:38;;;;;;;1.30;1.20;;;19.90;81.30;;;;;;5076875;28;20283;-74
2023/10/30 12:02:07;;;;;;;1.88;0.98;;;20.00;81.40;;;;;;5079450;28;20221;-74
2023/10/30 12:04:33;;;;;;;2.13;1.30;;;19.90;81.30;;;;;;5095053;28;20333;-72
2023/10/30 12:07:00;;;;;;;1.33;1.10;;;19.90;81.30;;;;;;5075875;28;20200;-72
2023/10/30 12:09:26;;;;;;;1.55;1.20;;;19.90;81.40;;;;;;5079151;28;20192;-72
2023/10/30 12:11:55;;;;;;;1.10;1.00;;;19.90;81.30;;;;;;5093346;28;20223;-73
2023/10/30 12:14:21;;;;;;;1.77;1.30;;;19.90;81.40;;;;;;5078286;28;20189;-72
2023/10/30 12:16:51;;;;;;;2.42;1.20;;;20.00;81.50;;;;;;5088070;28;20216;-72
2023/10/30 12:19:20;;;;;;;1.30;1.20;;;20.00;81.40;;;;;;5114227;28;20184;-72
2023/10/30 12:21:50;;;;;;;1.42;0.98;;;20.00;81.50;;;;;;5063903;28;20563;-72
2023/10/30 12:24:18;;;;;;;1.65;1.55;;;20.00;81.40;;;;;;5067699;28;20193;-72
2023/10/30 12:26:44;;;;;;;2.80;1.50;;;20.00;81.40;;;;;;5112094;28;20261;-74
2023/10/30 12:29:10;;;;;;;2.47;1.35;;;20.00;81.40;;;;;;5061680;28;20193;-72
2023/10/30 12:31:36;;;;;;;1.23;1.10;;;20.00;82.30;;;;;;5086419;28;20219;-72
2023/10/30 12:34:18;;;;;;;1.05;1.00;;;20.00;81.50;;;;;;5113401;28;20183;-72
2023/10/30 12:36:44;;;;;;;2.33;1.10;;;20.00;81.60;;;;;;5095622;28;20588;-72
2023/10/30 12:39:18;;;;;;;1.30;1.20;;;20.00;81.60;;;;;;5095876;28;20195;-72
2023/10/30 12:41:47;;;;;;;1.20;1.10;;;19.90;81.40;;;;;;5081912;28;20187;-72
2023/10/30 12:44:20;;;;;;;1.30;1.20;;;20.00;81.60;;;;;;5083004;28;20192;-72
2023/10/30 12:46:46;;;;;;;1.85;1.17;;;20.00;81.70;;;;;;5093689;28;20215;-73
2023/10/30 12:49:13;;;;;;;1.30;1.20;;;20.00;81.70;;;;;;5090814;28;20184;-72